Time;durP1;ratioP1;P1;durP2;ratioP2;P2;SDS_P1;SDS_P2;PMS_P1;PMS_P2;Temp;Humidity;BMP_temperature;BMP_pressure;BME280_temperature;BME280_humidity;BME280_pressure;Samples;Min_cycle;Max_cycle;Signal;HPM_P1;HPM_P2
2021/09/18 00:12:00;;;;;;;7.43;5.18;;;;;;;16.47;100.00;99801.69;713999;1175;113748;-74
2021/09/18 00:27:04;;;;;;;8.67;6.53;;;;;;;16.45;100.00;99794.94;714463;1202;114180;-73
2021/09/18 00:42:06;;;;;;;8.18;6.55;;;;;;;16.41;100.00;99797.13;714608;1200;115664;-74
2021/09/18 00:57:08;;;;;;;10.88;7.33;;;;;;;16.13;100.00;99795.16;714795;1200;115562;-73
2021/09/18 01:12:10;;;;;;;11.33;8.00;;;;;;;16.01;100.00;99804.56;714418;1174;114180;-73
2021/09/18 01:27:13;;;;;;;9.63;7.55;;;;;;;15.96;100.00;99809.58;714456;1175;114459;-73
2021/09/18 01:42:15;;;;;;;14.68;9.88;;;;;;;15.90;100.00;99802.36;714524;1200;115045;-74
2021/09/18 01:57:17;;;;;;;12.20;8.43;;;;;;;15.46;100.00;99810.02;714576;1199;114597;-75
2021/09/18 02:12:19;;;;;;;12.50;7.23;;;;;;;15.29;100.00;99809.33;714647;1200;114596;-74
2021/09/18 02:27:21;;;;;;;10.10;6.08;;;;;;;15.09;100.00;99808.98;714429;1177;114113;-74
2021/09/18 02:42:24;;;;;;;10.25;5.70;;;;;;;14.95;100.00;99813.23;714709;1200;114276;-73
2021/09/18 02:57:26;;;;;;;7.20;5.20;;;;;;;14.76;100.00;99808.39;714513;1202;114606;-73
2021/09/18 03:12:28;;;;;;;6.58;4.80;;;;;;;14.72;100.00;99813.19;714522;1200;114387;-74
2021/09/18 03:27:31;;;;;;;7.20;4.70;;;;;;;14.69;100.00;99816.19;714639;1200;114073;-74
2021/09/18 03:42:34;;;;;;;6.55;4.88;;;;;;;14.55;100.00;99816.89;714636;1203;114295;-73
2021/09/18 03:57:37;;;;;;;8.03;5.15;;;;;;;14.26;100.00;99813.05;714218;1199;114053;-74
2021/09/18 04:12:40;;;;;;;8.40;6.10;;;;;;;14.15;100.00;99827.44;713856;1200;114607;-74
2021/09/18 04:27:43;;;;;;;7.67;5.60;;;;;;;14.13;100.00;99839.95;713941;1203;114658;-74
2021/09/18 04:42:46;;;;;;;9.57;6.00;;;;;;;14.22;100.00;99848.68;713961;1200;113617;-73
2021/09/18 04:57:48;;;;;;;14.07;10.17;;;;;;;13.83;100.00;99867.87;713887;1202;114944;-75
2021/09/18 05:12:50;;;;;;;25.23;20.85;;;;;;;13.81;100.00;99878.59;713872;1203;115002;-74
2021/09/18 05:27:52;;;;;;;14.70;9.07;;;;;;;13.68;100.00;99892.27;714073;1202;114413;-73
2021/09/18 05:42:54;;;;;;;30.03;22.63;;;;;;;13.60;100.00;99906.26;714250;1176;115196;-75
2021/09/18 05:57:56;;;;;;;8.87;4.63;;;;;;;13.27;100.00;99934.35;714107;1203;115329;-75
2021/09/18 06:13:01;;;;;;;5.70;3.85;;;;;;;13.09;100.00;99947.63;714104;1202;115578;-71
2021/09/18 06:28:04;;;;;;;5.23;3.10;;;;;;;12.93;100.00;99958.92;714157;1199;114042;-73
2021/09/18 06:43:13;;;;;;;4.60;2.83;;;;;;;12.98;100.00;99961.91;714392;1199;114689;-82
2021/09/18 06:58:15;;;;;;;5.48;3.43;;;;;;;12.92;100.00;99978.33;714763;1200;113996;-82
2021/09/18 07:13:17;;;;;;;5.63;3.17;;;;;;;12.81;100.00;99985.55;716240;1203;113867;-80
2021/09/18 07:28:20;;;;;;;6.65;4.18;;;;;;;12.94;100.00;99997.44;720550;1200;113970;-79
2021/09/18 07:43:23;;;;;;;15.13;8.48;;;;;;;13.01;100.00;99993.18;716291;1202;113825;-80
2021/09/18 07:58:25;;;;;;;15.20;6.90;;;;;;;13.11;100.00;100001.78;714787;1205;114057;-80
2021/09/18 08:13:27;;;;;;;4.63;3.23;;;;;;;12.84;100.00;99999.36;714314;1200;114199;-81
2021/09/18 08:28:29;;;;;;;6.23;4.03;;;;;;;12.79;100.00;100016.45;718118;1199;114313;-81
2021/09/18 08:43:32;;;;;;;12.03;5.37;;;;;;;13.39;100.00;100027.92;715719;1200;114140;-82
2021/09/18 08:58:34;;;;;;;11.03;5.93;;;;;;;13.53;100.00;100046.77;715675;1203;115541;-86
2021/09/18 09:13:36;;;;;;;8.10;4.03;;;;;;;13.60;100.00;100077.56;714210;1199;114871;-76
2021/09/18 09:28:41;;;;;;;3.47;3.00;;;;;;;13.27;100.00;100079.23;714126;1199;114289;-76
2021/09/18 09:43:44;;;;;;;9.13;5.50;;;;;;;12.88;100.00;100100.73;713887;1203;115335;-75
2021/09/18 09:59:00;;;;;;;5.60;3.05;;;;;;;12.85;100.00;100111.58;713967;1200;114258;-76
2021/09/18 10:14:04;;;;;;;3.73;2.20;;;;;;;12.60;100.00;100106.98;713917;1199;115134;-73
2021/09/18 10:29:07;;;;;;;5.20;2.60;;;;;;;12.95;100.00;100118.39;713865;1200;114119;-73
2021/09/18 10:44:11;;;;;;;3.65;1.60;;;;;;;13.06;100.00;100135.73;713931;1200;115410;-74
2021/09/18 10:59:14;;;;;;;3.25;2.20;;;;;;;13.01;100.00;100145.91;713907;1200;113513;-71
2021/09/18 11:14:17;;;;;;;5.73;3.38;;;;;;;12.94;100.00;100155.41;713847;1200;115550;-73
2021/09/18 11:29:30;;;;;;;8.03;4.58;;;;;;;12.97;100.00;100155.09;713872;1177;114127;-71
2021/09/18 11:44:33;;;;;;;5.77;3.93;;;;;;;13.27;100.00;100164.34;713983;1199;113960;-72
2021/09/18 11:59:35;;;;;;;17.15;8.95;;;;;;;13.83;100.00;100149.97;713826;1200;114404;-72
2021/09/18 12:14:38;;;;;;;5.95;3.45;;;;;;;14.17;100.00;100152.53;713741;1201;115621;-75
2021/09/18 12:30:01;;;;;;;4.17;3.47;;;;;;;14.30;100.00;100160.79;714208;1199;113861;-76
2021/09/18 12:45:25;;;;;;;6.00;3.63;;;;;;;14.87;100.00;100164.48;714036;1182;114536;-72
2021/09/18 13:00:27;;;;;;;7.53;4.33;;;;;;;14.56;100.00;100167.77;713926;1199;115508;-70
2021/09/18 13:15:32;;;;;;;13.97;7.67;;;;;;;14.56;100.00;100174.87;713981;1200;114366;-75
2021/09/18 13:30:34;;;;;;;8.48;4.80;;;;;;;14.45;100.00;100166.27;713875;1184;114466;-71
2021/09/18 13:45:37;;;;;;;10.15;6.10;;;;;;;14.29;100.00;100160.95;713950;1174;115052;-72
2021/09/18 14:00:39;;;;;;;13.25;8.13;;;;;;;14.45;100.00;100165.43;713852;1199;115080;-74
2021/09/18 14:15:42;;;;;;;10.63;6.03;;;;;;;14.82;100.00;100177.38;713519;1202;115441;-72
2021/09/18 14:30:44;;;;;;;8.98;5.28;;;;;;;15.92;100.00;100162.75;713750;1177;114268;-72
2021/09/18 14:45:47;;;;;;;46.70;21.83;;;;;;;15.58;100.00;100163.84;713987;1199;115632;-72
2021/09/18 15:00:49;;;;;;;6.67;4.40;;;;;;;14.91;100.00;100168.47;713754;1203;114811;-72
2021/09/18 15:15:52;;;;;;;10.50;6.23;;;;;;;14.76;100.00;100172.75;713787;1203;115493;-71
2021/09/18 15:30:56;;;;;;;8.60;5.03;;;;;;;14.76;100.00;100183.31;713893;1198;115863;-72
2021/09/18 15:45:58;;;;;;;13.93;7.08;;;;;;;14.26;100.00;100196.41;714060;1199;115743;-73
2021/09/18 16:01:04;;;;;;;13.75;7.43;;;;;;;13.31;100.00;100218.36;713926;1199;114469;-77
2021/09/18 16:16:07;;;;;;;16.17;10.40;;;;;;;12.49;100.00;100234.30;715180;1200;115942;-78
2021/09/18 16:31:09;;;;;;;38.53;17.43;;;;;;;11.99;100.00;100263.66;714677;1200;115261;-72
2021/09/18 16:46:13;;;;;;;29.23;14.20;;;;;;;11.48;100.00;100271.81;714313;1199;114926;-73
2021/09/18 17:01:16;;;;;;;31.48;13.60;;;;;;;11.07;100.00;100279.05;714508;1199;114693;-73
2021/09/18 17:16:18;;;;;;;16.90;9.38;;;;;;;11.19;100.00;100284.98;715306;1199;114912;-72
2021/09/18 17:31:24;;;;;;;37.43;14.78;;;;;;;10.85;100.00;100311.64;714413;1199;114820;-73
2021/09/18 17:46:26;;;;;;;46.00;17.75;;;;;;;10.82;100.00;100304.86;714517;1177;114907;-73
2021/09/18 18:01:29;;;;;;;80.30;26.80;;;;;;;10.97;100.00;100318.41;714131;1199;114974;-72
2021/09/18 18:16:32;;;;;;;53.75;20.78;;;;;;;10.98;100.00;100320.07;714533;1199;115686;-73
2021/09/18 18:31:34;;;;;;;48.18;16.70;;;;;;;10.90;100.00;100326.95;715461;1203;114882;-75
2021/09/18 18:46:38;;;;;;;33.28;13.75;;;;;;;10.89;100.00;100325.33;713895;1204;117993;-75
2021/09/18 19:01:40;;;;;;;19.97;10.30;;;;;;;10.60;100.00;100321.67;713918;1203;114728;-75
2021/09/18 19:16:47;;;;;;;26.33;12.45;;;;;;;10.51;100.00;100332.14;714073;1203;115853;-75
2021/09/18 19:31:50;;;;;;;22.47;8.83;;;;;;;10.56;100.00;100320.28;714374;1202;115664;-75
2021/09/18 19:46:52;;;;;;;14.63;8.60;;;;;;;10.52;100.00;100332.00;714731;1202;115548;-76
2021/09/18 20:01:55;;;;;;;17.20;8.28;;;;;;;10.53;100.00;100336.30;714487;1200;116034;-75
2021/09/18 20:16:58;;;;;;;13.78;7.43;;;;;;;10.52;100.00;100341.65;714813;1199;115476;-76
2021/09/18 20:32:03;;;;;;;17.58;7.50;;;;;;;10.43;100.00;100332.81;714628;1200;115221;-74
2021/09/18 20:47:06;;;;;;;17.65;7.28;;;;;;;10.49;100.00;100335.73;715104;1199;114267;-76
2021/09/18 21:17:10;;;;;;;11.87;5.63;;;;;;;10.45;100.00;100334.34;715697;1177;114379;-77
2021/09/18 21:32:14;;;;;;;8.63;4.90;;;;;;;10.47;100.00;100329.77;715412;1186;114540;-76
2021/09/18 21:47:16;;;;;;;9.90;4.83;;;;;;;10.48;100.00;100339.30;715705;1203;115463;-77
2021/09/18 22:02:18;;;;;;;13.45;5.25;;;;;;;10.48;100.00;100343.73;727169;1199;113269;-77
2021/09/18 22:17:21;;;;;;;11.53;5.10;;;;;;;10.53;100.00;100349.41;718216;1200;114313;-77
2021/09/18 22:32:23;;;;;;;11.48;4.78;;;;;;;10.62;100.00;100339.89;713895;1199;115927;-77
2021/09/18 22:47:25;;;;;;;11.48;4.90;;;;;;;10.64;100.00;100348.47;713860;1200;114718;-76
2021/09/18 23:02:27;;;;;;;10.73;5.40;;;;;;;10.67;100.00;100340.32;713843;1199;115294;-78
2021/09/18 23:17:31;;;;;;;11.40;4.50;;;;;;;10.72;100.00;100339.93;713889;1202;114834;-76
2021/09/18 23:32:34;;;;;;;9.53;4.73;;;;;;;10.77;100.00;100332.48;713892;1199;115522;-77
2021/09/18 23:47:38;;;;;;;8.58;4.58;;;;;;;10.81;100.00;100329.44;713914;1203;114856;-75
